Manuals Listing
File name asc Size desc Last changed asc
dir ..
pdf TB43-PLCSU20E-AV-Display-Fault.pdf 10.81 KB 06.08.14 04:20:41
pdf TB42-PLC9000EA-Ghosting.pdf 11.36 KB 06.08.14 04:20:41
pdf TB45-VHRVK210A-Main-PCB.pdf 11.58 KB 06.08.14 04:20:41
pdf TB48 - DVD1500A Not Playing some DVDs.pdf 11.63 KB 06.08.14 04:20:44
pdf TB39-PLC5600E.PLC8800E-Unstable-Picture-with-Notebook-PC.pdf 11.66 KB 06.08.14 04:20:39
pdf TB75-CP29FS2-HUM.pdf 16.49 KB 06.08.14 04:21:21
pdf TB77-DVRDX600-NO-PICT.pdf 16.51 KB 06.08.14 04:21:21
pdf TB73-DCPT70-MULTI-ZONE.pdf 17.07 KB 06.08.14 04:21:19
pdf TB46 - CDP1100.CDP4100 Not Charging.pdf 17.21 KB 06.08.14 04:20:42
pdf TB74-PLVZ4-SUPER-STAND-BY.pdf 17.41 KB 06.08.14 04:21:21
pdf TB78-HVRDX625H-FIRMWARE.pdf 17.86 KB 06.08.14 04:21:27
db Thumbs.db 31 KB 06.08.14 04:21:39
pdf TB51 - CP14SR1.CP20SR1 H.O. Transistor.pdf 34.51 KB 06.08.14 04:20:47
pdf TB49 - EMX471 Door Latch Mod.pdf 34.55 KB 06.08.14 04:20:46
pdf TB52 - CP14SW1.CP21SW1 H.O. Transistor.pdf 34.58 KB 06.08.14 04:20:47
pdf TB44-Microwave-Oven-Door-Switches.pdf 34.6 KB 06.08.14 04:20:41
pdf TB41-CP29ST2-CP29ST3-Purity-Problem.pdf 54.76 KB 06.08.14 04:20:41
pdf TB40-DCD40-Power-Transformer.pdf 60.29 KB 06.08.14 04:20:40
pdf TB86-PDP42XR9DA-Transport.pdf 61.83 KB 06.08.14 04:21:39
pdf TB50 - DVD1500A Rocky Box Set Mod.pdf 62.04 KB 06.08.14 04:20:46
pdf TB54 - DSR3000P.DSR3019P Hard Drive.pdf 64.11 KB 06.08.14 04:20:50
pdf TB82-LCD32K30TD-High pitch noise.pdf 65.88 KB 06.08.14 04:21:36
pdf TB83-LCD37XR9DA-Hum.pdf 72.16 KB 06.08.14 04:21:37
pdf TB65-CP14G1-CP21G1-IC802.pdf 72.65 KB 06.08.14 04:21:03
pdf TB57 - DVDSL20 Multizone Upgrade .pdf 73.21 KB 06.08.14 04:20:52
pdf TB58 - DVD1500. DVD1500A Multizone Upgrade.pdf 73.3 KB 06.08.14 04:20:53
pdf TB56 - DCTS760 Multizone Upgrade.pdf 73.59 KB 06.08.14 04:20:51
pdf TB60 - DCTS750 Multizone Upgrade.pdf 73.62 KB 06.08.14 04:20:54
pdf TB64 - CP21MF2-MOD.pdf 73.98 KB 06.08.14 04:21:02
pdf TB69-CP32WF2-PIX-SLANT.pdf 74.27 KB 06.08.14 04:21:13
pdf TB59 - DVD7201. DCAVD8501 Multizone Upgrade.pdf 74.5 KB 06.08.14 04:20:54
pdf TB85-LCD22VT10DVD-High Pitch Noise.pdf 77.19 KB 06.08.14 04:21:39
pdf TB84-LCD42XR9DA-Hum.pdf 90.2 KB 06.08.14 04:21:38
pdf TB55 - CP29SV2Z 5V Regulator.pdf 93.9 KB 06.08.14 04:20:51
pdf TB66-VHRVK310-910-MECH-NOISE.pdf 100.93 KB 06.08.14 04:21:04
pdf TB71-PLCXU50-CH00-04.pdf 106.05 KB 06.08.14 04:21:14
pdf TB63 - CP21SA1-INT-STAND-BY.pdf 115.23 KB 06.08.14 04:21:01
pdf TB62 - CP21AF1V-INT-STAN-BY.pdf 115.54 KB 06.08.14 04:20:59
pdf TB79-42CA8Z 32K30.42K30 42K40 - FFFF - AGING.pdf 123.16 KB 06.08.14 04:21:29
pdf TB72-CP29AF2VA-21AF1VA-HUM.pdf 163.74 KB 06.08.14 04:21:16
pdf TB53 - PLCSW20A.PLCXW20A Blue Screen.pdf 184.51 KB 06.08.14 04:20:49
pdf TB80-LCD32XR8DA-HUM.pdf 240.49 KB 06.08.14 04:21:31
pdf TB67-CP20SR1G-20SA1G-BUZZ.pdf 260.32 KB 06.08.14 04:21:07
pdf TB47 - DCDA100.DCDA150.DCDA300 CD No Play.pdf 331.21 KB 06.08.14 04:20:45
pdf TB81-EMC7586V-TEMP-MOD.pdf 380.12 KB 06.08.14 04:21:36
pdf TB61 - DTA-150-MOD.pdf 382.98 KB 06.08.14 04:21:02
pdf TB76-CP29FS2-NO-POWER-MOD.pdf 591.67 KB 06.08.14 04:21:27
pdf TB68-VPCS1-LENS.pdf 834.54 KB 06.08.14 04:21:20
Mobile view | Page loaded in 27.63 ms